createdAt,value
2022-08-22T00:02:20.604Z,72.41
2022-08-22T00:02:44.827Z,76.48
2022-08-22T00:02:55.978Z,73.37
2022-08-22T00:04:58.486Z,72.68
2022-08-22T00:07:44.316Z,72.46
2022-08-22T00:10:25.550Z,72.19
2022-08-22T00:13:06.907Z,72.60
2022-08-22T00:15:44.317Z,72.43
2022-08-22T00:18:23.841Z,72.47
2022-08-22T00:21:13.644Z,72.57
2022-08-22T00:23:52.661Z,72.39
2022-08-22T00:26:45.436Z,72.73
2022-08-22T00:29:20.682Z,73.10
2022-08-22T00:31:52.863Z,73.35
2022-08-22T00:34:31.180Z,72.83
2022-08-22T00:37:08.455Z,73.47
2022-08-22T00:39:45.063Z,73.32
2022-08-22T00:42:56.313Z,73.75
2022-08-22T00:45:56.651Z,74.28
2022-08-22T00:48:47.618Z,74.53
2022-08-22T00:51:55.984Z,75.41
2022-08-22T00:54:39.753Z,75.23
2022-08-22T00:57:30.503Z,74.74
2022-08-22T01:00:13.040Z,75.17
2022-08-22T01:03:02.913Z,75.33
2022-08-22T01:05:50.903Z,75.22
2022-08-22T01:08:54.451Z,75.84
2022-08-22T01:11:49.973Z,75.41
2022-08-22T01:14:38.915Z,75.84
2022-08-22T01:17:28.270Z,75.34
2022-08-22T01:20:29.865Z,75.91
2022-08-22T01:23:42.021Z,75.77
2022-08-22T01:27:02.060Z,76.44
2022-08-22T01:30:14.044Z,76.00
2022-08-22T01:33:09.816Z,76.61
2022-08-22T01:39:13.739Z,77.11
2022-08-22T01:42:16.857Z,76.88
2022-08-22T01:45:10.820Z,77.38
2022-08-22T01:47:50.480Z,77.16
2022-08-22T01:50:32.876Z,77.39
2022-08-22T01:53:09.796Z,77.47
2022-08-22T01:55:53.536Z,77.30
2022-08-22T01:58:28.801Z,77.51
2022-08-22T02:01:20.395Z,77.32
2022-08-22T02:04:04.402Z,77.30
2022-08-22T02:06:46.007Z,77.68
2022-08-22T02:09:31.797Z,77.29
2022-08-22T02:12:29.637Z,77.27
2022-08-22T02:15:16.680Z,77.31
2022-08-22T02:18:12.395Z,77.47
2022-08-22T02:21:05.053Z,77.58
2022-08-22T02:23:48.132Z,77.54
2022-08-22T02:26:26.468Z,77.76
2022-08-22T02:29:05.983Z,78.39
2022-08-22T02:31:45.377Z,79.20
2022-08-22T02:34:40.834Z,78.78
2022-08-22T02:37:22.144Z,78.65
2022-08-22T02:40:08.855Z,78.89
2022-08-22T02:42:46.192Z,78.77
2022-08-22T02:45:30.884Z,79.11
2022-08-22T02:48:12.663Z,78.91
2022-08-22T02:50:53.009Z,78.98
2022-08-22T02:53:34.566Z,79.32
2022-08-22T02:56:12.695Z,79.51
2022-08-22T02:58:53.446Z,79.23
2022-08-22T03:01:43.550Z,79.57
2022-08-22T03:04:25.645Z,79.67
2022-08-22T03:07:16.265Z,80.06
2022-08-22T03:09:58.521Z,79.04
2022-08-22T03:12:38.913Z,78.93
2022-08-22T03:15:22.259Z,79.29
2022-08-22T03:18:01.638Z,79.37
2022-08-22T03:20:47.350Z,79.58
2022-08-22T03:23:32.581Z,79.34
2022-08-22T03:26:14.340Z,79.18
2022-08-22T03:28:59.273Z,79.34
2022-08-22T03:31:33.967Z,79.08
2022-08-22T03:34:32.135Z,79.45
2022-08-22T03:37:13.234Z,79.87
2022-08-22T03:40:01.024Z,79.90
2022-08-22T03:42:56.938Z,79.97
2022-08-22T03:46:17.807Z,79.71
2022-08-22T03:49:17.939Z,80.00
2022-08-22T03:52:20.454Z,79.43
2022-08-22T03:55:19.534Z,79.20
2022-08-22T03:58:27.994Z,79.13
2022-08-22T04:01:28.064Z,79.91
2022-08-22T04:04:24.033Z,79.65
2022-08-22T04:07:31.778Z,79.36
2022-08-22T04:10:49.874Z,79.53
2022-08-22T04:13:52.935Z,79.48
2022-08-22T04:17:10.293Z,79.92
2022-08-22T04:20:20.894Z,80.12
2022-08-22T04:23:16.133Z,81.06
2022-08-22T04:25:54.285Z,81.64
2022-08-22T04:28:37.940Z,81.58
2022-08-22T04:31:13.568Z,81.15
2022-08-22T04:33:50.933Z,81.09
2022-08-22T04:36:27.866Z,81.04
2022-08-22T04:39:04.769Z,81.47
2022-08-22T04:41:46.813Z,81.35
2022-08-22T04:44:27.449Z,80.72
2022-08-22T04:47:03.982Z,80.62
2022-08-22T04:49:40.526Z,80.82
2022-08-22T04:52:20.924Z,81.19
2022-08-22T04:55:02.750Z,81.44
2022-08-22T04:57:48.950Z,81.45
2022-08-22T05:00:21.462Z,81.42
2022-08-22T05:02:59.029Z,81.04
2022-08-22T05:05:39.588Z,80.87
2022-08-22T05:08:18.547Z,80.45
2022-08-22T05:10:53.106Z,80.20
2022-08-22T05:13:30.101Z,80.26
2022-08-22T05:16:06.994Z,80.20
2022-08-22T05:18:46.693Z,80.53
2022-08-22T05:21:23.721Z,80.34
2022-08-22T05:24:04.274Z,80.54
2022-08-22T05:26:41.762Z,81.38
2022-08-22T05:29:20.310Z,81.78
2022-08-22T05:31:57.803Z,81.54
2022-08-22T05:34:34.209Z,81.05
2022-08-22T05:37:14.301Z,81.16
2022-08-22T05:39:50.089Z,81.16
2022-08-22T05:42:31.446Z,80.64
2022-08-22T05:45:11.510Z,81.28
2022-08-22T05:47:52.041Z,81.82
2022-08-22T05:50:35.461Z,81.88
2022-08-22T05:53:11.004Z,82.26
2022-08-22T05:55:56.462Z,82.65
2022-08-22T05:58:45.145Z,82.71
2022-08-22T06:01:25.001Z,83.16
2022-08-22T06:04:04.456Z,82.94
2022-08-22T06:06:41.187Z,83.08
2022-08-22T06:09:20.740Z,83.15
2022-08-22T06:11:59.041Z,83.89
2022-08-22T06:14:41.606Z,83.58
2022-08-22T06:17:17.788Z,84.10
2022-08-22T06:19:53.861Z,84.51
2022-08-22T06:22:29.233Z,84.77
2022-08-22T06:25:07.444Z,84.94
2022-08-22T06:27:40.253Z,84.39
2022-08-22T06:30:17.544Z,84.28
2022-08-22T06:32:59.435Z,84.82
2022-08-22T06:35:50.919Z,85.05
2022-08-22T06:38:26.969Z,85.11
2022-08-22T06:41:03.981Z,85.09
2022-08-22T06:43:43.227Z,84.91
2022-08-22T06:46:18.292Z,84.89
2022-08-22T06:48:54.785Z,85.32
2022-08-22T06:51:31.470Z,85.91
2022-08-22T06:54:06.946Z,85.10
2022-08-22T06:56:44.614Z,85.47
2022-08-22T06:59:20.230Z,85.70
2022-08-22T07:01:56.254Z,85.26
2022-08-22T07:04:29.206Z,84.77
2022-08-22T07:07:02.887Z,85.05
2022-08-22T07:09:39.096Z,85.07
2022-08-22T07:12:19.574Z,85.13
2022-08-22T07:14:58.935Z,85.11
2022-08-22T07:17:35.930Z,85.08
2022-08-22T07:20:28.075Z,85.34
2022-08-22T07:23:03.682Z,85.47
2022-08-22T07:25:49.585Z,85.95
2022-08-22T07:28:36.637Z,86.11
2022-08-22T07:31:16.804Z,86.19
2022-08-22T07:33:54.246Z,86.16
2022-08-22T07:36:36.014Z,86.04
2022-08-22T07:39:21.634Z,86.02
2022-08-22T07:42:11.379Z,85.90
2022-08-22T07:45:02.978Z,86.01
2022-08-22T07:47:52.696Z,86.68
2022-08-22T07:50:30.228Z,87.02
2022-08-22T07:53:19.623Z,86.21
2022-08-22T07:55:53.784Z,86.12
2022-08-22T07:58:29.611Z,85.96
2022-08-22T08:01:02.274Z,85.63
2022-08-22T08:03:35.466Z,85.85
2022-08-22T08:06:09.574Z,85.99
2022-08-22T08:08:45.738Z,85.96
2022-08-22T08:11:21.040Z,86.25
2022-08-22T08:13:58.474Z,85.36
2022-08-22T08:16:34.516Z,85.59
2022-08-22T08:19:08.154Z,85.67
2022-08-22T08:21:44.439Z,86.25
2022-08-22T08:24:21.719Z,86.29
2022-08-22T08:27:16.117Z,85.79
2022-08-22T08:29:59.023Z,85.77
2022-08-22T08:32:36.224Z,86.15
2022-08-22T08:35:18.088Z,86.81
2022-08-22T08:37:55.466Z,86.80
2022-08-22T08:40:56.296Z,86.76
2022-08-22T08:43:41.817Z,87.12
2022-08-22T08:46:36.615Z,88.13
2022-08-22T08:52:52.919Z,88.00
2022-08-22T08:55:41.335Z,88.44
2022-08-22T08:58:33.848Z,88.55
2022-08-22T09:01:27.679Z,88.10
2022-08-22T09:04:27.566Z,88.29
2022-08-22T09:07:25.017Z,88.76
2022-08-22T09:10:41.260Z,89.08
2022-08-22T09:13:34.517Z,88.73
2022-08-22T09:16:27.420Z,88.55
2022-08-22T09:19:30.930Z,88.80
2022-08-22T09:22:50.196Z,89.12
2022-08-22T09:25:36.799Z,89.42
2022-08-22T09:28:20.008Z,89.15
2022-08-22T09:34:13.449Z,89.40
2022-08-22T09:37:13.912Z,90.37
2022-08-22T09:39:57.557Z,89.53
2022-08-22T09:40:16.579Z,87.72
2022-08-22T09:58:27.874Z,91.36
2022-08-22T10:01:09.547Z,91.75
2022-08-22T10:04:12.690Z,92.24
2022-08-22T10:06:57.063Z,91.86
2022-08-22T10:09:36.681Z,91.67
2022-08-22T10:12:16.780Z,92.51
2022-08-22T10:15:06.872Z,91.87
2022-08-22T10:17:46.351Z,91.74
2022-08-22T10:20:27.713Z,92.53
2022-08-22T10:23:08.349Z,92.34
2022-08-22T10:25:49.939Z,92.37
2022-08-22T10:28:40.183Z,92.10
2022-08-22T10:31:27.394Z,90.89
2022-08-22T10:34:09.716Z,90.66
2022-08-22T10:36:58.270Z,91.17
2022-08-22T10:39:39.934Z,90.83
2022-08-22T10:42:28.450Z,90.59
2022-08-22T10:45:23.883Z,90.93
2022-08-22T10:48:35.214Z,91.73
2022-08-22T10:51:16.646Z,91.36
2022-08-22T10:54:27.431Z,89.84
2022-08-22T10:57:14.397Z,90.46
2022-08-22T11:00:02.699Z,90.08
2022-08-22T11:02:53.394Z,88.81
2022-08-22T11:05:32.843Z,89.25
2022-08-22T11:08:40.748Z,89.11
2022-08-22T11:11:21.493Z,89.40
2022-08-22T11:14:21.133Z,89.46
2022-08-22T11:17:09.151Z,89.32
2022-08-22T11:20:14.461Z,88.72
2022-08-22T11:22:55.756Z,89.62
2022-08-22T11:25:41.419Z,89.30
2022-08-22T11:28:34.397Z,89.44
2022-08-22T11:31:19.915Z,89.69
2022-08-22T11:33:59.749Z,89.63
2022-08-22T11:36:40.647Z,89.28
2022-08-22T11:39:23.012Z,89.87
2022-08-22T11:42:06.724Z,89.59
2022-08-22T11:44:50.766Z,89.77
2022-08-22T11:47:29.074Z,90.53
2022-08-22T11:50:13.263Z,90.40
2022-08-22T11:53:08.505Z,91.01
2022-08-22T11:55:49.313Z,90.82
2022-08-22T11:58:34.522Z,90.92
2022-08-22T12:01:17.400Z,91.33
2022-08-22T12:04:03.448Z,90.85
2022-08-22T12:06:46.836Z,90.76
2022-08-22T12:09:37.920Z,91.40
2022-08-22T12:12:31.323Z,91.23
2022-08-22T12:15:12.887Z,91.21
2022-08-22T12:18:13.484Z,91.39
2022-08-22T12:21:15.136Z,92.17
2022-08-22T12:24:11.160Z,91.06
2022-08-22T12:27:00.884Z,88.74
2022-08-22T12:29:46.180Z,89.21
2022-08-22T12:32:49.209Z,89.32
2022-08-22T12:35:33.258Z,88.57
2022-08-22T12:38:28.102Z,88.83
2022-08-22T12:41:28.477Z,88.53
2022-08-22T12:44:25.959Z,87.58
2022-08-22T12:47:10.939Z,87.98
2022-08-22T12:50:04.924Z,88.34
2022-08-22T12:52:55.273Z,88.32
2022-08-22T12:55:43.630Z,87.78
2022-08-22T12:58:33.075Z,88.44
2022-08-22T13:01:09.390Z,88.43
2022-08-22T13:03:48.515Z,87.80
2022-08-22T13:06:50.583Z,88.63
2022-08-22T13:09:31.645Z,88.21
2022-08-22T13:12:24.079Z,88.69
2022-08-22T13:15:01.297Z,88.52
2022-08-22T13:17:36.422Z,88.56
2022-08-22T13:20:14.451Z,88.63
2022-08-22T13:22:51.440Z,88.69
2022-08-22T13:25:29.980Z,88.85
2022-08-22T13:28:04.873Z,87.87
2022-08-22T13:30:41.303Z,87.54
2022-08-22T13:33:17.385Z,87.50
2022-08-22T13:35:54.283Z,87.38
2022-08-22T13:38:30.634Z,88.09
2022-08-22T13:41:05.440Z,87.99
2022-08-22T13:43:55.797Z,88.31
2022-08-22T13:46:31.502Z,88.28
2022-08-22T13:49:12.556Z,87.51
2022-08-22T13:51:52.428Z,87.72
2022-08-22T13:54:52.557Z,88.69
2022-08-22T13:57:29.003Z,89.01
2022-08-22T14:00:22.385Z,89.14
2022-08-22T14:03:08.286Z,87.42
2022-08-22T14:05:45.567Z,88.23
2022-08-22T14:08:21.002Z,88.64
2022-08-22T14:11:06.685Z,87.25
2022-08-22T14:13:44.278Z,87.16
2022-08-22T14:16:33.765Z,87.99
2022-08-22T14:19:10.505Z,88.03
2022-08-22T14:21:51.920Z,87.34
2022-08-22T14:24:28.510Z,87.32
2022-08-22T14:27:06.292Z,87.52
2022-08-22T14:29:45.093Z,88.28
2022-08-22T14:32:49.158Z,88.59
2022-08-22T14:35:35.340Z,87.92
2022-08-22T14:38:27.362Z,87.49
2022-08-22T14:41:06.992Z,87.06
2022-08-22T14:43:57.193Z,86.48
2022-08-22T14:46:36.350Z,85.88
2022-08-22T14:49:28.708Z,86.29
2022-08-22T14:52:06.224Z,86.17
2022-08-22T14:54:38.952Z,85.94
2022-08-22T14:57:20.316Z,86.25
2022-08-22T14:59:55.119Z,86.11
2022-08-22T15:02:31.520Z,84.91
2022-08-22T15:05:18.426Z,85.02
2022-08-22T15:07:59.210Z,85.80
2022-08-22T15:10:35.868Z,85.71
2022-08-22T15:13:11.474Z,85.00
2022-08-22T15:15:54.969Z,84.74
2022-08-22T15:18:38.988Z,84.91
2022-08-22T15:21:14.284Z,84.45
2022-08-22T15:23:51.698Z,85.28
2022-08-22T15:26:28.216Z,85.97
2022-08-22T15:29:07.957Z,85.00
2022-08-22T15:31:41.640Z,84.42
2022-08-22T15:34:29.825Z,85.32
2022-08-22T15:37:29.640Z,85.44
2022-08-22T15:40:11.928Z,84.86
2022-08-22T15:42:48.559Z,84.80
2022-08-22T15:45:39.607Z,83.99
2022-08-22T15:48:29.432Z,85.78
2022-08-22T15:51:09.182Z,84.83
2022-08-22T15:54:02.787Z,84.75
2022-08-22T15:57:18.512Z,83.75
2022-08-22T15:59:59.636Z,82.67
2022-08-22T16:02:36.457Z,83.17
2022-08-22T16:05:30.582Z,83.33
2022-08-22T16:08:07.890Z,83.15
2022-08-22T16:10:44.416Z,83.88
2022-08-22T16:13:41.788Z,83.57
2022-08-22T16:16:32.886Z,84.41
2022-08-22T16:19:25.513Z,84.26
2022-08-22T16:22:17.145Z,84.71
2022-08-22T16:25:06.005Z,84.31
2022-08-22T16:27:52.200Z,83.42
2022-08-22T16:30:38.952Z,83.08
2022-08-22T16:33:17.780Z,83.09
2022-08-22T16:36:25.280Z,83.12
2022-08-22T16:38:59.128Z,83.37
2022-08-22T16:41:42.042Z,83.61
2022-08-22T16:44:43.179Z,83.37
2022-08-22T16:47:20.141Z,83.28
2022-08-22T16:50:04.525Z,84.18
2022-08-22T16:52:56.362Z,84.80
2022-08-22T16:55:50.627Z,84.91
2022-08-22T16:59:19.694Z,84.79
2022-08-22T17:02:12.584Z,85.03
2022-08-22T17:04:54.922Z,84.89
2022-08-22T17:07:37.265Z,85.48
2022-08-22T17:10:26.610Z,85.62
2022-08-22T17:13:26.464Z,85.95
2022-08-22T17:16:15.817Z,85.96
2022-08-22T17:19:05.513Z,86.19
2022-08-22T17:21:53.563Z,86.60
2022-08-22T17:24:34.962Z,86.60
2022-08-22T17:27:17.767Z,86.97
2022-08-22T17:30:04.040Z,87.56
2022-08-22T17:33:00.009Z,87.59
2022-08-22T17:35:46.542Z,87.60
2022-08-22T17:38:27.868Z,87.83
2022-08-22T17:41:10.147Z,87.58
2022-08-22T17:43:55.908Z,87.60
2022-08-22T17:46:41.087Z,87.74
2022-08-22T17:49:15.698Z,88.09
2022-08-22T17:51:56.913Z,88.18
2022-08-22T17:54:40.478Z,88.45
2022-08-22T17:57:23.623Z,88.26
2022-08-22T18:00:04.800Z,88.53
2022-08-22T18:02:44.066Z,88.38
2022-08-22T18:05:30.224Z,87.58
2022-08-22T18:08:37.797Z,88.47
2022-08-22T18:11:16.324Z,88.74
2022-08-22T18:13:57.579Z,88.27
2022-08-22T18:16:33.855Z,87.77
2022-08-22T18:19:13.911Z,88.51
2022-08-22T18:21:56.272Z,88.45
2022-08-22T18:24:35.889Z,88.47
2022-08-22T18:27:34.817Z,88.47
2022-08-22T18:30:19.818Z,88.64
2022-08-22T18:33:00.428Z,88.16
2022-08-22T18:35:41.662Z,87.81
2022-08-22T18:38:23.373Z,88.55
2022-08-22T18:41:05.444Z,89.10
2022-08-22T18:43:44.579Z,88.80
2022-08-22T18:46:42.751Z,88.76
2022-08-22T18:49:43.383Z,88.54
2022-08-22T18:52:21.007Z,88.73
2022-08-22T18:55:23.633Z,88.27
2022-08-22T18:58:40.931Z,88.52
2022-08-22T19:01:44.318Z,88.62
2022-08-22T19:04:31.794Z,88.48
2022-08-22T19:07:25.283Z,89.13
2022-08-22T19:10:20.740Z,88.78
2022-08-22T19:13:21.733Z,88.80
2022-08-22T19:16:06.948Z,88.52
2022-08-22T19:18:52.223Z,88.57
2022-08-22T19:21:47.650Z,88.69
2022-08-22T19:24:57.564Z,88.46
2022-08-22T19:27:34.547Z,88.26
2022-08-22T19:30:30.208Z,88.51
2022-08-22T19:33:03.215Z,88.29
2022-08-22T19:36:09.092Z,88.02
2022-08-22T19:38:56.836Z,87.94
2022-08-22T19:41:52.626Z,88.17
2022-08-22T19:44:42.282Z,88.29
2022-08-22T19:47:28.136Z,88.39
2022-08-22T19:50:06.122Z,88.29
2022-08-22T19:52:53.077Z,88.79
2022-08-22T19:55:51.058Z,88.50
2022-08-22T19:58:33.633Z,88.17
2022-08-22T20:01:27.103Z,88.18
2022-08-22T20:04:05.551Z,88.59
2022-08-22T20:06:44.665Z,88.61
2022-08-22T20:09:34.992Z,88.79
2022-08-22T20:12:16.606Z,88.64
2022-08-22T20:14:50.157Z,88.47
2022-08-22T20:17:43.791Z,88.62
2022-08-22T20:20:36.068Z,88.61
2022-08-22T20:23:23.941Z,88.10
2022-08-22T20:25:57.330Z,88.69
2022-08-22T20:28:41.275Z,88.34
2022-08-22T20:31:24.614Z,88.19
2022-08-22T20:34:03.288Z,88.50
2022-08-22T20:36:35.909Z,88.73
2022-08-22T20:39:17.221Z,88.97
2022-08-22T20:41:55.245Z,89.05
2022-08-22T20:44:31.648Z,88.64
2022-08-22T20:47:10.341Z,88.14
2022-08-22T20:49:48.219Z,87.84
2022-08-22T20:52:28.527Z,87.37
2022-08-22T20:55:09.429Z,87.35
2022-08-22T20:57:48.518Z,87.07
2022-08-22T21:00:24.363Z,87.94
2022-08-22T21:03:00.361Z,87.92
2022-08-22T21:05:39.312Z,87.78
2022-08-22T21:08:16.660Z,86.93
2022-08-22T21:11:18.459Z,87.10
2022-08-22T21:13:51.789Z,87.37
2022-08-22T21:16:31.633Z,87.81
2022-08-22T21:19:04.314Z,87.98
2022-08-22T21:21:38.098Z,87.29
2022-08-22T21:24:12.017Z,87.46
2022-08-22T21:26:51.535Z,87.13
2022-08-22T21:29:32.756Z,86.18
2022-08-22T21:32:23.449Z,85.58
2022-08-22T21:34:56.737Z,85.40
2022-08-22T21:37:39.934Z,84.53
2022-08-22T21:40:17.709Z,84.04
2022-08-22T21:43:06.483Z,83.69
2022-08-22T21:45:45.145Z,83.72
2022-08-22T21:48:40.328Z,83.30
2022-08-22T21:51:39.098Z,83.56
2022-08-22T21:54:42.676Z,84.16
2022-08-22T21:57:34.514Z,84.91
2022-08-22T22:00:30.501Z,85.23
2022-08-22T22:03:03.427Z,85.22
2022-08-22T22:05:40.783Z,84.52
2022-08-22T22:08:13.776Z,84.16
2022-08-22T22:10:47.752Z,84.12
2022-08-22T22:13:20.774Z,84.49
2022-08-22T22:15:57.167Z,85.08
2022-08-22T22:18:33.628Z,85.36
2022-08-22T22:21:06.507Z,84.21
2022-08-22T22:23:38.770Z,84.10
2022-08-22T22:26:12.317Z,85.13
2022-08-22T22:28:50.267Z,85.41
2022-08-22T22:31:22.784Z,85.28
2022-08-22T22:33:55.141Z,85.58
2022-08-22T22:36:29.379Z,85.63
2022-08-22T22:39:01.845Z,84.56
2022-08-22T22:41:34.310Z,83.89
2022-08-22T22:44:07.215Z,84.18
2022-08-22T22:46:39.383Z,84.13
2022-08-22T22:49:11.610Z,84.36
2022-08-22T22:51:43.776Z,84.19
2022-08-22T22:54:16.599Z,84.39
2022-08-22T22:56:49.503Z,84.50
2022-08-22T22:59:24.566Z,83.92
2022-08-22T23:02:06.405Z,84.79
2022-08-22T23:04:42.638Z,83.84
2022-08-22T23:07:18.402Z,84.60
2022-08-22T23:09:50.677Z,84.23
2022-08-22T23:12:25.737Z,83.65
2022-08-22T23:14:58.013Z,83.87
2022-08-22T23:17:31.101Z,84.65
2022-08-22T23:20:03.979Z,84.84
2022-08-22T23:22:36.552Z,84.01
2022-08-22T23:25:09.958Z,83.09
2022-08-22T23:27:42.382Z,83.48
2022-08-22T23:30:15.604Z,84.19
2022-08-22T23:32:47.967Z,84.76
2022-08-22T23:35:21.106Z,84.37
2022-08-22T23:37:53.591Z,84.33
2022-08-22T23:40:25.784Z,84.38
2022-08-22T23:42:59.338Z,84.13
2022-08-22T23:45:32.005Z,84.64
2022-08-22T23:48:04.401Z,85.61
2022-08-22T23:50:36.862Z,85.81
2022-08-22T23:53:08.893Z,85.94
2022-08-22T23:55:41.144Z,85.47
2022-08-22T23:58:15.503Z,85.60
